Flight Track Log - Related Links

Times and Time Zones

All times are in EDT time to prevent confusion due to time zone crossing. See the ASH3732 flight status page for this flight to view local times or setup timezone preferences in your user account.

Time Position Orientation Groundspeed Altitude Reporting Facility
EDT Latitude Longitude Course Direction KTS MPH feet Rate Location/Type
Tue 11:39:07 PM 42.0000 -87.9333 14° North 161 185 1,400  Level Chicago TRACON
Tue 11:40:07 PM 42.0333 -87.9833 312° West 218 251 3,100 1,700 Climbing Chicago TRACON
Tue 11:41:07 PM 42.0833 -88.0500 315° West 278 320 4,800 713 Climbing Chicago TRACON
Tue 11:42:00 PM 42.3809 -87.7679 20° North  Level FlightAware Approximate
Tue 11:42:47 PM 42.1792 -88.1314 328° Northwest 277 319 5,000  Level Chicago Center
Tue 11:43:00 PM 42.4847 -87.7364 North  Level FlightAware Approximate
Tue 11:43:48 PM 42.2536 -88.1425 354° North 274 315 5,500  Level Chicago Center
Tue 11:44:00 PM 42.5893 -87.7092 14° North  Level FlightAware Approximate
Tue 11:44:49 PM 42.3322 -88.1544 354° North 277 319 8,600  Level Chicago Center
Tue 11:45:49 PM 42.4133 -88.1631 356° North 288 331 11,300 2,727 Climbing Chicago Center
Tue 11:46:50 PM 42.5139 -88.1617 North 319 367 14,100 1,967 Climbing Chicago Center
Tue 11:47:51 PM 42.5633 -88.0506 59° Northeast 363 418 15,300 1,475 Climbing Chicago Center
Tue 11:48:52 PM 42.6050 -87.9175 67° East 383 441 17,100 1,672 Climbing Chicago Center
Tue 11:49:53 PM 42.6486 -87.7764 67° East 404 465 18,700 1,636 Climbing Chicago Center
Tue 11:50:53 PM 42.6931 -87.6325 67° East 415 478 20,400 1,587 Climbing Chicago Center
Tue 11:51:54 PM 42.7386 -87.4839 67° East 427 491 21,900 1,279 Climbing Chicago Center
Tue 11:52:55 PM 42.7828 -87.3378 68° East 434 499 23,000 541 Climbing Chicago Center
Tue 11:53:56 PM 42.8225 -87.1686 72° East 469 540 23,000  Level Chicago Center
Tue 11:54:56 PM 42.8253 -86.9889 89° East 480 552 23,000  Level Chicago Center
Tue 11:55:57 PM 42.8303 -86.8092 88° East 477 549 23,000  Level Chicago Center
Tue 11:56:58 PM 42.8325 -86.6297 89° East 475 547 23,000  Level Chicago Center
Tue 11:57:59 PM 42.8350 -86.4472 89° East 484 557 23,000  Level Chicago Center
Tue 11:58:59 PM 42.8375 -86.2647 89° East 486 559 23,000  Level Chicago Center
Wed 12:00:00 AM 42.8381 -86.0469 90° East 489 563 23,000  Level Chicago Center
Wed 12:01:01 AM 42.8411 -85.8664 89° East 488 562 23,000  Level Chicago Center
Wed 12:02:01 AM 42.8422 -85.6842 89° East 489 563 23,000  Level Chicago Center
Wed 12:03:02 AM 42.8433 -85.5000 89° East 490 564 23,000  Level Chicago Center
Wed 12:04:03 AM 42.8442 -85.3153 90° East 491 565 23,000  Level Chicago Center
Wed 12:05:03 AM 42.8453 -85.1294 89° East 493 567 23,000  Level Chicago Center
Wed 12:06:04 AM 42.8447 -84.9442 90° East 492 566 23,000  Level Chicago Center
Wed 12:07:05 AM 42.8447 -84.7592 90° East 492 566 23,000 -347 Level Chicago Center
Wed 12:08:05 AM 42.8453 -84.5728 90° East 494 568 22,300 -992 Descending Chicago Center
Wed 12:09:06 AM 42.8278 -84.4072 98° East 450 518 21,000 -1,576 Descending Chicago Center
Wed 12:09:44 AM 42.7747 -84.3172 129° Southeast 358 412 19,700 -1,959 Descending Cleveland Center
Wed 12:10:44 AM 42.7158 -84.2092 127° Southeast 346 398 17,800 -2,083 Descending Cleveland Center
Wed 12:11:45 AM 42.6561 -84.1153 131° Southeast 341 392 15,500 -2,132 Descending Cleveland Center
Wed 12:12:45 AM 42.5833 -84.0406 143° Southeast 318 366 13,500 -2,083 Descending Cleveland Center
Wed 12:13:46 AM 42.5144 -83.9719 144° Southeast 305 351 11,300 -1,180 Descending Cleveland Center
Wed 12:14:47 AM 42.4519 -83.9011 140° Southeast 305 351 11,100 -843 Descending Cleveland Center
Wed 12:15:47 AM 42.3850 -83.8331 143° Southeast 274 315 9,600 -1,686 Descending Cleveland Center
Wed 12:16:48 AM 42.3242 -83.7736 144° Southeast 267 307 7,700 -1,587 Descending Cleveland Center
Wed 12:17:48 AM 42.2675 -83.7147 142° Southeast 253 291 6,400 -1,289 Descending Cleveland Center
Wed 12:18:49 AM 42.2228 -83.6706 144° Southeast 192 221 5,100 -836 Descending Cleveland Center
Wed 12:19:50 AM 42.1711 -83.6511 164° South 185 213 4,700 -793 Descending Cleveland Center
Wed 12:20:50 AM 42.1283 -83.6125 146° Southeast 190 219 3,500 -793 Descending Cleveland Center
Wed 12:21:51 AM 42.0944 -83.5522 127° Southeast 185 213 3,100 -197 Descending Cleveland Center
Wed 12:22:52 AM 42.0669 -83.4950 123° Southeast 169 194 3,100 -50 Level Cleveland Center
Wed 12:23:52 AM 42.0989 -83.4600 39° Northeast 156 180 3,000 -446 Descending Cleveland Center
Wed 12:24:53 AM 42.1350 -83.4364 26° Northeast 142 163 2,200 -787 Descending Cleveland Center

Login

Don't have an account? Register now (free) for customized features, flight alerts, and more!